createdAt,value
2019-02-26T00:00:35.455Z,66.30
2019-02-26T00:02:11.775Z,54.13
2019-02-26T00:03:48.098Z,58.03
2019-02-26T00:05:26.149Z,58.13
2019-02-26T00:07:02.084Z,67.97
2019-02-26T00:08:38.382Z,52.50
2019-02-26T00:10:14.795Z,61.67
2019-02-26T00:11:50.919Z,57.03
2019-02-26T00:13:29.401Z,57.57
2019-02-26T00:15:10.970Z,57.97
2019-02-26T00:16:48.755Z,52.77
2019-02-26T00:18:26.080Z,56.60
2019-02-26T00:20:01.886Z,55.00
2019-02-26T00:21:38.251Z,46.73
2019-02-26T00:23:14.417Z,55.63
2019-02-26T00:24:50.497Z,47.00
2019-02-26T00:26:27.992Z,56.00
2019-02-26T00:28:05.503Z,52.77
2019-02-26T00:29:41.844Z,53.60
2019-02-26T00:31:19.201Z,49.70
2019-02-26T00:32:57.745Z,45.53
2019-02-26T00:34:34.673Z,45.53
2019-02-26T00:36:13.217Z,47.47
2019-02-26T00:37:51.666Z,48.30
2019-02-26T00:39:29.698Z,50.90
2019-02-26T00:41:07.690Z,50.13
2019-02-26T00:42:44.000Z,45.30
2019-02-26T00:44:21.195Z,47.17
2019-02-26T00:45:58.247Z,46.70
2019-02-26T00:47:36.378Z,48.13
2019-02-26T00:49:13.321Z,48.67
2019-02-26T00:50:49.389Z,43.50
2019-02-26T00:52:25.475Z,43.37
2019-02-26T00:54:01.996Z,41.33
2019-02-26T00:55:39.688Z,45.80
2019-02-26T00:57:17.258Z,44.50
2019-02-26T00:58:52.959Z,41.30
2019-02-26T01:00:30.791Z,44.50
2019-02-26T01:02:06.960Z,39.57
2019-02-26T01:03:44.829Z,39.43
2019-02-26T01:05:20.868Z,44.50
2019-02-26T01:06:58.975Z,46.20
2019-02-26T01:08:35.806Z,43.03
2019-02-26T01:10:14.010Z,42.97
2019-02-26T01:11:52.027Z,43.30
2019-02-26T01:13:30.074Z,42.67
2019-02-26T01:15:14.053Z,42.10
2019-02-26T01:16:50.311Z,39.17
2019-02-26T01:18:26.781Z,41.80
2019-02-26T01:20:09.883Z,42.20
2019-02-26T01:21:46.043Z,35.00
2019-02-26T01:23:24.244Z,39.80
2019-02-26T01:24:59.950Z,42.17
2019-02-26T01:26:36.042Z,36.13
2019-02-26T01:28:14.107Z,39.83
2019-02-26T01:29:51.795Z,41.33
2019-02-26T01:31:29.895Z,39.73
2019-02-26T01:33:08.013Z,44.37
2019-02-26T01:34:45.675Z,39.77
2019-02-26T01:36:23.701Z,41.17
2019-02-26T01:38:00.560Z,36.53
2019-02-26T01:39:38.318Z,37.83
2019-02-26T01:41:15.562Z,43.47
2019-02-26T01:42:55.009Z,42.63
2019-02-26T01:44:32.336Z,40.90
2019-02-26T01:46:09.427Z,36.13
2019-02-26T01:47:48.265Z,40.47
2019-02-26T01:49:23.749Z,38.63
2019-02-26T01:51:01.683Z,42.20
2019-02-26T01:52:38.803Z,39.63
2019-02-26T01:54:16.775Z,35.67
2019-02-26T01:55:53.524Z,37.70
2019-02-26T01:57:29.622Z,40.47
2019-02-26T01:59:05.569Z,37.63
2019-02-26T02:00:41.700Z,37.50
2019-02-26T02:02:20.415Z,35.83
2019-02-26T02:03:56.311Z,40.63
2019-02-26T02:05:32.631Z,37.13
2019-02-26T02:07:08.840Z,37.17
2019-02-26T02:08:45.893Z,37.83
2019-02-26T02:10:22.811Z,39.10
2019-02-26T02:12:00.013Z,40.67
2019-02-26T02:13:38.642Z,40.47
2019-02-26T02:15:18.832Z,40.73
2019-02-26T02:16:54.087Z,35.70
2019-02-26T02:18:30.201Z,38.23
2019-02-26T02:20:20.747Z,37.90
2019-02-26T02:21:54.411Z,39.23
2019-02-26T02:23:31.551Z,41.63
2019-02-26T02:25:09.354Z,42.67
2019-02-26T02:26:47.734Z,35.80
2019-02-26T02:28:23.872Z,41.00
2019-02-26T02:30:01.163Z,34.93
2019-02-26T02:31:37.812Z,43.33
2019-02-26T02:33:19.588Z,40.63
2019-02-26T02:34:58.229Z,39.20
2019-02-26T02:36:31.624Z,42.80
2019-02-26T02:38:07.757Z,39.83
2019-02-26T02:39:43.787Z,45.30
2019-02-26T02:41:19.859Z,43.53
2019-02-26T02:42:55.818Z,46.63
2019-02-26T02:44:31.851Z,45.70
2019-02-26T02:46:07.924Z,41.03
2019-02-26T02:47:44.017Z,42.63
2019-02-26T02:49:19.905Z,40.60
2019-02-26T02:50:55.808Z,42.87
2019-02-26T02:52:33.095Z,43.17
2019-02-26T02:54:12.131Z,39.03
2019-02-26T02:55:51.491Z,45.30
2019-02-26T02:57:27.365Z,42.23
2019-02-26T02:59:05.971Z,44.37
2019-02-26T03:00:43.507Z,36.47
2019-02-26T03:02:20.524Z,43.37
2019-02-26T03:03:59.019Z,44.77
2019-02-26T03:05:37.476Z,46.60
2019-02-26T03:07:15.045Z,41.57
2019-02-26T03:08:51.609Z,41.07
2019-02-26T03:10:30.858Z,42.00
2019-02-26T03:12:06.235Z,50.47
2019-02-26T03:13:43.089Z,43.63
2019-02-26T03:15:21.842Z,40.97
2019-02-26T03:16:57.991Z,41.30
2019-02-26T03:18:34.098Z,36.17
2019-02-26T03:20:13.100Z,44.57
2019-02-26T03:21:49.713Z,39.90
2019-02-26T03:23:26.763Z,43.47
2019-02-26T03:25:02.812Z,43.00
2019-02-26T03:26:38.875Z,42.27
2019-02-26T03:28:14.950Z,42.33
2019-02-26T03:29:52.535Z,47.50
2019-02-26T03:31:30.998Z,41.93
2019-02-26T03:33:06.871Z,41.47
2019-02-26T03:34:42.845Z,41.07
2019-02-26T03:36:19.334Z,40.43
2019-02-26T03:37:57.961Z,45.30
2019-02-26T03:39:33.090Z,44.50
2019-02-26T03:41:09.217Z,41.63
2019-02-26T03:42:46.241Z,45.00
2019-02-26T03:44:22.426Z,41.40
2019-02-26T03:45:58.473Z,42.27
2019-02-26T03:47:34.499Z,42.07
2019-02-26T03:49:10.741Z,43.57
2019-02-26T03:50:46.970Z,41.17
2019-02-26T03:52:23.030Z,43.07
2019-02-26T03:54:00.388Z,41.13
2019-02-26T03:55:38.816Z,38.90
2019-02-26T03:57:16.651Z,41.93
2019-02-26T03:58:56.701Z,40.67
2019-02-26T04:00:32.437Z,42.27
2019-02-26T04:02:09.487Z,37.83
2019-02-26T04:03:45.558Z,40.33
2019-02-26T04:05:21.862Z,42.33
2019-02-26T04:06:58.580Z,39.83
2019-02-26T04:08:35.981Z,40.33
2019-02-26T04:10:13.934Z,39.80
2019-02-26T04:11:52.525Z,43.43
2019-02-26T04:13:27.632Z,38.90
2019-02-26T04:15:04.674Z,44.20
2019-02-26T04:16:43.460Z,38.93
2019-02-26T04:18:18.630Z,42.73
2019-02-26T04:19:54.769Z,40.30
2019-02-26T04:22:08.375Z,48.63
2019-02-26T04:23:46.572Z,37.93
2019-02-26T04:25:41.434Z,38.30
2019-02-26T04:27:44.154Z,35.90
2019-02-26T04:29:27.058Z,43.37
2019-02-26T04:31:30.906Z,46.17
2019-02-26T04:33:38.128Z,41.73
2019-02-26T04:35:17.846Z,39.03
2019-02-26T04:37:38.466Z,39.80
2019-02-26T04:39:51.942Z,41.87
2019-02-26T04:41:33.275Z,40.60
2019-02-26T04:43:19.521Z,37.13
2019-02-26T04:45:21.087Z,40.97
2019-02-26T04:46:59.571Z,37.83
2019-02-26T04:48:42.143Z,45.07
2019-02-26T04:50:18.173Z,42.83
2019-02-26T04:51:54.317Z,44.70
2019-02-26T04:53:31.370Z,38.23
2019-02-26T04:55:10.272Z,38.97
2019-02-26T04:56:48.049Z,39.43
2019-02-26T04:58:25.024Z,38.83
2019-02-26T05:00:02.570Z,36.03
2019-02-26T05:01:38.905Z,37.73
2019-02-26T05:03:17.203Z,38.67
2019-02-26T05:04:52.776Z,35.63
2019-02-26T05:06:28.936Z,37.47
2019-02-26T05:08:07.664Z,40.97
2019-02-26T05:09:42.953Z,35.27
2019-02-26T05:11:31.136Z,38.50
2019-02-26T05:12:57.935Z,36.87
2019-02-26T05:14:34.515Z,36.93
2019-02-26T05:16:10.726Z,36.37
2019-02-26T05:17:48.119Z,36.33
2019-02-26T05:19:24.396Z,35.37
2019-02-26T05:21:02.778Z,37.53
2019-02-26T05:22:42.810Z,40.50
2019-02-26T05:24:21.279Z,33.83
2019-02-26T05:26:02.875Z,35.83
2019-02-26T05:27:36.388Z,39.07
2019-02-26T05:29:14.148Z,39.40
2019-02-26T05:30:51.393Z,32.67
2019-02-26T05:32:30.031Z,39.23
2019-02-26T05:34:05.603Z,38.27
2019-02-26T05:35:45.632Z,35.60
2019-02-26T05:37:19.311Z,33.10
2019-02-26T05:38:57.141Z,38.07
2019-02-26T05:40:37.527Z,38.90
2019-02-26T05:42:10.720Z,43.33
2019-02-26T05:43:49.287Z,37.37
2019-02-26T05:45:26.573Z,42.13
2019-02-26T05:47:02.486Z,34.00
2019-02-26T05:48:39.963Z,38.27
2019-02-26T05:50:16.806Z,34.70
2019-02-26T05:51:53.971Z,38.47
2019-02-26T05:53:30.916Z,33.77
2019-02-26T05:55:09.121Z,36.03
2019-02-26T05:56:46.840Z,35.63
2019-02-26T05:58:23.043Z,41.53
2019-02-26T05:59:58.933Z,39.87
2019-02-26T06:01:34.828Z,44.37
2019-02-26T06:03:12.796Z,40.07
2019-02-26T06:04:48.697Z,39.60
2019-02-26T06:06:24.595Z,36.90
2019-02-26T06:08:00.803Z,39.43
2019-02-26T06:09:36.913Z,38.80
2019-02-26T06:11:13.048Z,45.10
2019-02-26T06:12:50.415Z,38.70
2019-02-26T06:14:27.645Z,41.27
2019-02-26T06:16:05.508Z,40.97
2019-02-26T06:17:45.232Z,41.97
2019-02-26T06:19:24.559Z,43.10
2019-02-26T06:21:01.178Z,42.03
2019-02-26T06:22:37.638Z,41.80
2019-02-26T06:24:13.802Z,39.17
2019-02-26T06:25:49.598Z,42.60
2019-02-26T06:27:27.281Z,38.70
2019-02-26T06:29:03.520Z,46.13
2019-02-26T06:30:39.496Z,41.67
2019-02-26T06:32:18.388Z,40.23
2019-02-26T06:33:54.497Z,49.10
2019-02-26T06:35:31.528Z,45.10
2019-02-26T06:37:20.186Z,42.17
2019-02-26T06:38:56.454Z,41.87
2019-02-26T06:40:36.734Z,38.57
2019-02-26T06:42:12.214Z,40.93
2019-02-26T06:43:50.273Z,39.30
2019-02-26T06:45:27.195Z,40.40
2019-02-26T06:47:04.789Z,36.47
2019-02-26T06:48:41.165Z,37.33
2019-02-26T06:50:18.906Z,38.73
2019-02-26T06:51:55.225Z,35.30
2019-02-26T06:53:31.140Z,38.93
2019-02-26T06:55:10.448Z,31.57
2019-02-26T06:56:48.491Z,35.80
2019-02-26T06:58:26.688Z,38.53
2019-02-26T07:00:04.264Z,34.17
2019-02-26T07:01:42.018Z,33.50
2019-02-26T07:03:18.268Z,37.43
2019-02-26T07:04:54.301Z,32.67
2019-02-26T07:06:32.622Z,31.53
2019-02-26T07:08:08.046Z,32.33
2019-02-26T07:09:44.079Z,36.03
2019-02-26T07:11:21.532Z,35.30
2019-02-26T07:12:57.596Z,35.70
2019-02-26T07:14:34.519Z,41.17
2019-02-26T07:16:10.711Z,37.20
2019-02-26T07:17:46.699Z,35.70
2019-02-26T07:19:22.767Z,37.70
2019-02-26T07:21:00.293Z,33.93
2019-02-26T07:22:36.562Z,35.87
2019-02-26T07:24:12.532Z,32.57
2019-02-26T07:25:48.566Z,32.70
2019-02-26T07:27:26.339Z,35.30
2019-02-26T07:29:03.527Z,34.57
2019-02-26T07:30:42.315Z,39.93
2019-02-26T07:32:20.205Z,34.23
2019-02-26T07:33:58.057Z,31.83
2019-02-26T07:35:35.085Z,32.33
2019-02-26T07:37:13.395Z,34.60
2019-02-26T07:38:51.566Z,31.13
2019-02-26T07:40:28.444Z,29.33
2019-02-26T07:42:06.821Z,30.03
2019-02-26T07:43:46.346Z,31.80
2019-02-26T07:45:22.909Z,30.80
2019-02-26T07:46:58.871Z,32.30
2019-02-26T07:48:35.795Z,31.83
2019-02-26T07:50:14.614Z,33.43
2019-02-26T07:51:50.660Z,28.03
2019-02-26T07:53:26.761Z,32.70
2019-02-26T07:55:03.735Z,29.27
2019-02-26T07:56:40.694Z,28.30
2019-02-26T07:58:17.843Z,30.13
2019-02-26T07:59:54.143Z,31.40
2019-02-26T08:01:30.288Z,26.70
2019-02-26T08:03:06.398Z,35.83
2019-02-26T08:04:43.627Z,30.07
2019-02-26T08:06:19.735Z,30.43
2019-02-26T08:07:56.570Z,26.40
2019-02-26T08:09:32.855Z,27.73
2019-02-26T08:11:08.850Z,25.50
2019-02-26T08:12:46.347Z,28.80
2019-02-26T08:14:23.308Z,31.47
2019-02-26T08:16:02.463Z,26.43
2019-02-26T08:17:39.139Z,25.37
2019-02-26T08:19:15.096Z,27.03
2019-02-26T08:20:52.782Z,29.73
2019-02-26T08:22:30.149Z,28.87
2019-02-26T08:24:06.885Z,24.83
2019-02-26T08:25:42.871Z,28.57
2019-02-26T08:27:18.898Z,27.00
2019-02-26T08:28:54.962Z,26.17
2019-02-26T08:30:31.092Z,32.60
2019-02-26T08:32:07.262Z,26.20
2019-02-26T08:33:43.242Z,24.13
2019-02-26T08:35:19.334Z,25.40
2019-02-26T08:36:55.235Z,24.13
2019-02-26T08:38:31.295Z,23.73
2019-02-26T08:40:11.481Z,24.83
2019-02-26T08:42:05.822Z,28.20
2019-02-26T08:43:44.140Z,24.63
2019-02-26T08:45:25.511Z,25.03
2019-02-26T08:47:00.828Z,25.13
2019-02-26T08:48:36.868Z,24.90
2019-02-26T08:50:15.953Z,23.07
2019-02-26T08:51:51.984Z,23.97
2019-02-26T08:53:29.011Z,20.23
2019-02-26T08:55:10.383Z,23.83
2019-02-26T08:56:46.432Z,20.50
2019-02-26T08:58:23.597Z,24.07
2019-02-26T09:00:00.121Z,21.67
2019-02-26T09:01:36.373Z,22.83
2019-02-26T09:03:13.845Z,22.40
2019-02-26T09:04:50.355Z,24.23
2019-02-26T09:06:26.365Z,27.60
2019-02-26T09:08:02.357Z,23.40
2019-02-26T09:09:39.655Z,24.57
2019-02-26T09:11:15.838Z,22.67
2019-02-26T09:12:52.227Z,25.17
2019-02-26T09:14:32.021Z,22.90
2019-02-26T09:16:07.947Z,25.97
2019-02-26T09:17:44.231Z,22.27
2019-02-26T09:19:22.682Z,21.13
2019-02-26T09:20:59.665Z,23.33
2019-02-26T09:22:35.746Z,22.83
2019-02-26T09:24:11.819Z,25.17
2019-02-26T09:25:51.442Z,27.83
2019-02-26T09:27:27.269Z,23.00
2019-02-26T09:29:03.612Z,26.87
2019-02-26T09:30:40.856Z,24.10
2019-02-26T09:32:18.308Z,25.43
2019-02-26T09:33:54.412Z,24.17
2019-02-26T09:35:31.354Z,23.40
2019-02-26T09:37:08.417Z,25.77
2019-02-26T09:38:46.751Z,24.33
2019-02-26T09:40:23.671Z,26.63
2019-02-26T09:42:02.258Z,24.47
2019-02-26T09:43:40.503Z,23.57
2019-02-26T09:45:26.044Z,23.40
2019-02-26T09:47:04.438Z,27.97
2019-02-26T09:48:40.507Z,25.10
2019-02-26T09:50:17.770Z,26.07
2019-02-26T09:51:55.101Z,22.40
2019-02-26T09:53:32.037Z,24.90
2019-02-26T09:55:14.405Z,24.27
2019-02-26T09:56:50.449Z,21.53
2019-02-26T09:58:26.554Z,25.87
2019-02-26T10:00:03.256Z,24.20
2019-02-26T10:01:40.756Z,27.87
2019-02-26T10:03:17.336Z,26.43
2019-02-26T10:04:54.414Z,28.73
2019-02-26T10:06:30.462Z,27.83
2019-02-26T10:08:10.422Z,22.10
2019-02-26T10:09:48.456Z,28.47
2019-02-26T10:11:26.129Z,27.87
2019-02-26T10:13:04.696Z,27.23
2019-02-26T10:14:39.841Z,28.57
2019-02-26T10:16:15.921Z,25.33
2019-02-26T10:17:52.008Z,22.90
2019-02-26T10:19:28.074Z,25.47
2019-02-26T10:21:06.242Z,23.23
2019-02-26T10:22:41.963Z,24.30
2019-02-26T10:24:18.759Z,20.87
2019-02-26T10:25:57.928Z,23.03
2019-02-26T10:27:35.820Z,23.17
2019-02-26T10:29:11.326Z,25.67
2019-02-26T10:30:47.459Z,24.07
2019-02-26T10:32:24.299Z,20.20
2019-02-26T10:34:02.990Z,24.17
2019-02-26T10:35:42.127Z,21.73
2019-02-26T10:37:17.170Z,23.33
2019-02-26T10:38:55.092Z,21.17
2019-02-26T10:40:35.630Z,22.10
2019-02-26T10:42:08.953Z,21.73
2019-02-26T10:43:44.856Z,24.47
2019-02-26T10:45:27.074Z,24.27
2019-02-26T10:47:04.058Z,23.17
2019-02-26T10:48:41.700Z,22.63
2019-02-26T10:50:22.860Z,21.30
2019-02-26T10:51:59.709Z,22.83
2019-02-26T10:53:35.848Z,21.97
2019-02-26T10:55:15.041Z,28.10
2019-02-26T10:56:50.181Z,25.07
2019-02-26T10:58:26.078Z,31.40
2019-02-26T11:00:02.705Z,22.13
2019-02-26T11:01:40.272Z,27.00
2019-02-26T11:03:17.430Z,21.37
2019-02-26T11:04:55.523Z,23.30
2019-02-26T11:06:33.704Z,20.90
2019-02-26T11:08:09.664Z,19.80
2019-02-26T11:09:49.418Z,24.10
2019-02-26T11:11:23.630Z,29.03
2019-02-26T11:12:59.859Z,24.90
2019-02-26T11:14:37.242Z,19.53
2019-02-26T11:16:17.053Z,19.03
2019-02-26T11:17:53.615Z,20.90
2019-02-26T11:19:33.853Z,21.43
2019-02-26T11:21:07.438Z,16.23
2019-02-26T11:22:44.871Z,20.40
2019-02-26T11:24:23.479Z,17.23
2019-02-26T11:25:59.378Z,16.37
2019-02-26T11:27:37.770Z,13.93
2019-02-26T11:29:13.358Z,16.03
2019-02-26T11:30:51.561Z,14.43
2019-02-26T11:32:28.322Z,12.53
2019-02-26T11:34:07.297Z,28.27
2019-02-26T11:35:44.393Z,14.80
2019-02-26T11:37:24.772Z,16.80
2019-02-26T11:39:03.789Z,17.30
2019-02-26T11:40:38.461Z,15.50
2019-02-26T11:42:16.452Z,14.63
2019-02-26T11:43:52.399Z,12.70
2019-02-26T11:45:28.678Z,14.07
2019-02-26T11:47:04.889Z,16.43
2019-02-26T11:48:40.878Z,12.27
2019-02-26T11:50:27.114Z,13.77
2019-02-26T11:52:01.592Z,14.03
2019-02-26T11:53:37.771Z,14.70
2019-02-26T11:55:16.081Z,18.93
2019-02-26T11:56:52.610Z,21.40
2019-02-26T11:58:28.841Z,29.57
2019-02-26T12:00:24.350Z,72.53
2019-02-26T12:01:54.038Z,20.97
2019-02-26T12:03:33.148Z,13.33
2019-02-26T12:05:10.701Z,34.90
2019-02-26T12:06:46.146Z,26.40
2019-02-26T12:08:22.805Z,20.60
2019-02-26T12:10:09.295Z,20.43
2019-02-26T12:11:40.355Z,25.00
2019-02-26T12:13:17.202Z,23.50
2019-02-26T12:14:54.050Z,28.00
2019-02-26T12:16:30.099Z,34.33
2019-02-26T12:18:06.503Z,17.80
2019-02-26T12:19:43.869Z,14.03
2019-02-26T12:21:21.454Z,47.50
2019-02-26T12:22:57.514Z,19.57
2019-02-26T12:24:36.011Z,15.33
2019-02-26T12:26:11.458Z,18.97
2019-02-26T12:27:48.255Z,14.70
2019-02-26T12:29:26.004Z,26.00
2019-02-26T12:31:04.044Z,23.33
2019-02-26T12:32:41.678Z,26.67
2019-02-26T12:34:20.748Z,39.07
2019-02-26T12:35:59.002Z,38.27
2019-02-26T12:37:33.513Z,22.87
2019-02-26T12:39:09.619Z,40.23
2019-02-26T12:40:47.147Z,28.43
2019-02-26T12:42:23.614Z,23.53
2019-02-26T12:44:02.042Z,13.77
2019-02-26T12:45:38.754Z,26.07
2019-02-26T12:47:17.910Z,18.37
2019-02-26T12:48:52.888Z,44.97
2019-02-26T12:50:30.824Z,22.13
2019-02-26T12:52:06.682Z,16.37
2019-02-26T12:53:47.588Z,18.47
2019-02-26T12:55:28.969Z,28.23
2019-02-26T12:57:04.191Z,31.67
2019-02-26T12:58:41.117Z,17.87
2019-02-26T13:00:25.123Z,25.70
2019-02-26T13:02:04.701Z,17.13
2019-02-26T13:03:42.777Z,16.53
2019-02-26T13:05:23.003Z,40.20
2019-02-26T13:06:57.768Z,15.43
2019-02-26T13:08:35.621Z,18.27
2019-02-26T13:10:24.760Z,25.47
2019-02-26T13:12:02.765Z,33.00
2019-02-26T13:13:38.665Z,17.67
2019-02-26T13:15:19.309Z,48.27
2019-02-26T13:16:57.061Z,63.73
2019-02-26T13:18:33.267Z,28.03
2019-02-26T13:20:21.811Z,27.27
2019-02-26T13:22:05.072Z,31.87
2019-02-26T13:23:37.175Z,43.33
2019-02-26T13:25:17.680Z,18.60
2019-02-26T13:26:54.481Z,35.47
2019-02-26T13:28:30.515Z,20.70
2019-02-26T13:30:10.918Z,21.13
2019-02-26T13:31:55.674Z,32.23
2019-02-26T13:33:33.206Z,15.17
2019-02-26T13:35:07.423Z,17.90
2019-02-26T13:36:43.651Z,13.93
2019-02-26T13:38:24.460Z,17.07
2019-02-26T13:39:56.111Z,24.43
2019-02-26T13:41:38.692Z,12.63
2019-02-26T13:43:11.480Z,20.60
2019-02-26T13:44:47.506Z,14.83
2019-02-26T13:46:23.738Z,19.57
2019-02-26T13:48:01.388Z,19.07
2019-02-26T13:49:37.741Z,15.83
2019-02-26T13:51:13.776Z,16.90
2019-02-26T13:52:49.652Z,18.00
2019-02-26T13:54:25.769Z,13.53
2019-02-26T13:56:01.902Z,12.77
2019-02-26T13:57:37.943Z,12.73
2019-02-26T13:59:14.178Z,12.57
2019-02-26T14:00:50.411Z,15.10
2019-02-26T14:02:26.550Z,16.23
2019-02-26T14:04:02.765Z,16.03
2019-02-26T14:05:38.735Z,10.27
2019-02-26T14:07:14.787Z,21.13
2019-02-26T14:08:50.861Z,47.13
2019-02-26T14:10:27.463Z,17.73
2019-02-26T14:12:03.544Z,15.30
2019-02-26T14:13:41.228Z,13.33
2019-02-26T14:15:28.173Z,25.53
2019-02-26T14:17:04.290Z,13.43
2019-02-26T14:18:40.361Z,17.40
2019-02-26T14:20:16.563Z,22.30
2019-02-26T14:21:52.636Z,15.30
2019-02-26T14:23:34.736Z,14.57
2019-02-26T14:25:09.326Z,17.63
2019-02-26T14:26:45.991Z,16.27
2019-02-26T14:28:21.889Z,16.73
2019-02-26T14:29:58.032Z,14.60
2019-02-26T14:31:34.545Z,14.50
2019-02-26T14:33:10.502Z,19.17
2019-02-26T14:34:46.587Z,20.53
2019-02-26T14:36:22.657Z,17.67
2019-02-26T14:37:58.614Z,12.13
2019-02-26T14:39:34.583Z,14.17
2019-02-26T14:41:10.366Z,15.87
2019-02-26T14:42:46.460Z,13.07
2019-02-26T14:44:23.387Z,19.27
2019-02-26T14:45:59.436Z,15.87
2019-02-26T14:47:35.498Z,16.87
2019-02-26T14:49:11.572Z,16.70
2019-02-26T14:50:47.703Z,14.40
2019-02-26T14:52:23.899Z,16.37
2019-02-26T14:54:00.076Z,13.43
2019-02-26T14:55:36.201Z,12.50
2019-02-26T14:57:12.256Z,19.90
2019-02-26T14:58:48.964Z,15.23
2019-02-26T15:00:36.042Z,16.83
2019-02-26T15:02:12.165Z,18.07
2019-02-26T15:03:48.255Z,13.50
2019-02-26T15:05:24.455Z,15.57
2019-02-26T15:07:00.572Z,14.10
2019-02-26T15:08:36.637Z,14.73
2019-02-26T15:10:14.133Z,11.57
2019-02-26T15:11:50.166Z,18.60
2019-02-26T15:13:26.294Z,13.30
2019-02-26T15:15:02.356Z,14.80
2019-02-26T15:16:38.392Z,14.17
2019-02-26T15:18:14.517Z,17.37
2019-02-26T15:19:53.148Z,16.43
2019-02-26T15:21:28.086Z,14.00
2019-02-26T15:23:03.948Z,13.37
2019-02-26T15:24:39.993Z,13.93
2019-02-26T15:26:15.958Z,16.40
2019-02-26T15:27:52.057Z,15.00
2019-02-26T15:29:27.934Z,18.43
2019-02-26T15:31:04.126Z,21.63
2019-02-26T15:32:40.098Z,21.57
2019-02-26T15:34:16.214Z,16.00
2019-02-26T15:35:52.251Z,19.20
2019-02-26T15:37:28.481Z,14.10
2019-02-26T15:39:07.336Z,16.93
2019-02-26T15:40:43.496Z,15.57
2019-02-26T15:42:21.086Z,13.50
2019-02-26T15:43:57.409Z,16.40
2019-02-26T15:45:34.003Z,16.53
2019-02-26T15:47:10.247Z,15.53
2019-02-26T15:48:46.365Z,12.83
2019-02-26T15:50:22.953Z,14.97
2019-02-26T15:51:58.911Z,16.07
2019-02-26T15:53:35.044Z,15.50
2019-02-26T15:55:25.941Z,10.97
2019-02-26T15:57:01.631Z,13.60
2019-02-26T15:58:37.672Z,20.47
2019-02-26T16:00:18.558Z,17.20
2019-02-26T16:01:55.540Z,19.43
2019-02-26T16:03:31.972Z,11.37
2019-02-26T16:05:11.275Z,13.60
2019-02-26T16:06:47.322Z,17.30
2019-02-26T16:08:23.597Z,13.27
2019-02-26T16:09:59.645Z,15.07
2019-02-26T16:11:35.673Z,14.20
2019-02-26T16:13:11.728Z,18.07
2019-02-26T16:14:47.646Z,15.30
2019-02-26T16:16:23.526Z,13.17
2019-02-26T16:17:59.558Z,20.00
2019-02-26T16:19:37.865Z,17.63
2019-02-26T16:21:13.998Z,26.00
2019-02-26T16:22:50.130Z,21.07
2019-02-26T16:24:26.191Z,27.03
2019-02-26T16:26:01.991Z,50.60
2019-02-26T16:27:38.022Z,16.97
2019-02-26T16:29:14.439Z,29.50
2019-02-26T16:30:50.839Z,21.63
2019-02-26T16:32:26.799Z,33.00
2019-02-26T16:34:02.761Z,24.77
2019-02-26T16:35:38.859Z,19.87
2019-02-26T16:37:15.179Z,17.33
2019-02-26T16:38:51.701Z,15.97
2019-02-26T16:40:31.411Z,19.37
2019-02-26T16:42:05.895Z,21.57
2019-02-26T16:43:42.080Z,18.17
2019-02-26T16:45:25.905Z,17.90
2019-02-26T16:47:01.940Z,28.07
2019-02-26T16:48:37.993Z,25.73
2019-02-26T16:50:19.809Z,24.93
2019-02-26T16:51:55.762Z,22.87
2019-02-26T16:53:34.187Z,23.30
2019-02-26T16:55:14.133Z,15.87
2019-02-26T16:56:54.296Z,18.00
2019-02-26T16:58:28.407Z,16.53
2019-02-26T17:00:10.151Z,22.60
2019-02-26T17:01:46.347Z,16.40
2019-02-26T17:03:22.450Z,18.60
2019-02-26T17:04:58.546Z,16.80
2019-02-26T17:06:34.696Z,17.27
2019-02-26T17:08:12.552Z,18.63
2019-02-26T17:09:48.507Z,16.20
2019-02-26T17:11:24.667Z,17.97
2019-02-26T17:13:02.336Z,20.47
2019-02-26T17:14:38.664Z,22.17
2019-02-26T17:16:15.222Z,19.37
2019-02-26T17:17:51.428Z,18.93
2019-02-26T17:19:27.567Z,45.33
2019-02-26T17:21:03.628Z,75.83
2019-02-26T17:22:41.020Z,139.43
2019-02-26T17:24:18.447Z,153.30
2019-02-26T17:25:55.589Z,231.87
2019-02-26T17:27:31.547Z,109.93
2019-02-26T17:29:07.752Z,382.33
2019-02-26T17:30:43.854Z,148.17
2019-02-26T17:32:19.921Z,97.33
2019-02-26T17:33:55.897Z,121.03
2019-02-26T17:35:32.000Z,34.07
2019-02-26T17:37:09.346Z,63.37
2019-02-26T17:38:45.570Z,30.40
2019-02-26T17:40:27.109Z,25.53
2019-02-26T17:42:03.325Z,40.97
2019-02-26T17:43:39.351Z,24.60
2019-02-26T17:45:18.756Z,35.13
2019-02-26T17:46:54.693Z,189.20
2019-02-26T17:48:31.238Z,205.60
2019-02-26T17:50:24.208Z,432.80
2019-02-26T17:52:00.418Z,336.53
2019-02-26T17:53:36.480Z,95.90
2019-02-26T17:55:14.173Z,179.27
2019-02-26T17:56:50.463Z,141.07
2019-02-26T17:58:26.598Z,141.20
2019-02-26T18:00:02.666Z,143.70
2019-02-26T18:01:38.623Z,71.67
2019-02-26T18:03:14.554Z,32.67
2019-02-26T18:04:50.589Z,62.73
2019-02-26T18:06:26.691Z,38.00
2019-02-26T18:08:02.613Z,93.33
2019-02-26T18:09:38.642Z,73.20
2019-02-26T18:11:14.772Z,112.93
2019-02-26T18:12:50.886Z,61.63
2019-02-26T18:14:26.926Z,21.90
2019-02-26T18:16:09.150Z,32.30
2019-02-26T18:17:42.097Z,40.33
2019-02-26T18:19:20.152Z,153.00
2019-02-26T18:20:56.270Z,42.57
2019-02-26T18:22:32.651Z,68.63
2019-02-26T18:24:08.795Z,40.07
2019-02-26T18:25:44.964Z,36.80
2019-02-26T18:27:20.918Z,29.37
2019-02-26T18:28:57.055Z,40.57
2019-02-26T18:30:33.244Z,28.83
2019-02-26T18:32:11.232Z,40.57
2019-02-26T18:33:48.118Z,35.93
2019-02-26T18:35:24.326Z,41.33
2019-02-26T18:37:00.378Z,23.80
2019-02-26T18:38:36.342Z,67.40
2019-02-26T18:40:18.115Z,23.43
2019-02-26T18:41:54.086Z,26.63
2019-02-26T18:43:30.619Z,33.33
2019-02-26T18:45:16.246Z,20.33
2019-02-26T18:46:52.489Z,52.30
2019-02-26T18:48:28.546Z,41.70
2019-02-26T18:50:05.182Z,30.47
2019-02-26T18:51:41.275Z,60.50
2019-02-26T18:53:17.395Z,32.50
2019-02-26T18:54:54.232Z,50.53
2019-02-26T18:56:31.212Z,37.93
2019-02-26T18:58:07.352Z,33.43
2019-02-26T18:59:44.215Z,47.87
2019-02-26T19:01:20.446Z,20.97
2019-02-26T19:02:56.674Z,22.70
2019-02-26T19:04:32.802Z,24.50
2019-02-26T19:06:08.824Z,46.63
2019-02-26T19:07:44.805Z,46.17
2019-02-26T19:09:20.900Z,32.13
2019-02-26T19:10:56.928Z,31.43
2019-02-26T19:12:34.362Z,21.80
2019-02-26T19:14:10.437Z,28.90
2019-02-26T19:15:48.019Z,32.87
2019-02-26T19:17:26.602Z,34.10
2019-02-26T19:19:03.793Z,23.03
2019-02-26T19:20:40.788Z,29.70
2019-02-26T19:22:16.785Z,29.97
2019-02-26T19:23:52.893Z,36.00
2019-02-26T19:25:29.091Z,25.90
2019-02-26T19:27:05.672Z,39.83
2019-02-26T19:28:41.824Z,21.63
2019-02-26T19:30:23.195Z,21.63
2019-02-26T19:31:59.165Z,33.87
2019-02-26T19:33:35.161Z,32.13
2019-02-26T19:35:12.535Z,34.37
2019-02-26T19:36:48.828Z,24.43
2019-02-26T19:38:27.283Z,29.80
2019-02-26T19:40:05.697Z,39.03
2019-02-26T19:41:40.299Z,32.97
2019-02-26T19:43:16.331Z,27.03
2019-02-26T19:44:52.493Z,36.23
2019-02-26T19:46:28.620Z,53.30
2019-02-26T19:48:04.749Z,33.80
2019-02-26T19:49:40.845Z,23.33
2019-02-26T19:51:17.295Z,23.57
2019-02-26T19:52:57.084Z,28.03
2019-02-26T19:54:31.421Z,24.17
2019-02-26T19:56:07.645Z,29.43
2019-02-26T19:57:43.845Z,34.47
2019-02-26T19:59:19.921Z,21.67
2019-02-26T20:00:56.121Z,30.53
2019-02-26T20:02:32.287Z,27.10
2019-02-26T20:04:08.408Z,25.43
2019-02-26T20:05:46.682Z,24.53
2019-02-26T20:07:22.126Z,27.43
2019-02-26T20:08:58.186Z,22.67
2019-02-26T20:10:34.315Z,28.17
2019-02-26T20:12:10.511Z,23.57
2019-02-26T20:13:46.675Z,29.53
2019-02-26T20:15:22.870Z,23.63
2019-02-26T20:17:04.962Z,33.93
2019-02-26T20:18:36.617Z,28.80
2019-02-26T20:20:21.012Z,30.27
2019-02-26T20:21:56.912Z,29.27
2019-02-26T20:23:32.798Z,24.07
2019-02-26T20:25:15.342Z,26.20
2019-02-26T20:26:58.995Z,31.33
2019-02-26T20:28:35.502Z,28.07
2019-02-26T20:30:15.938Z,37.03
2019-02-26T20:31:55.393Z,28.37
2019-02-26T20:33:29.830Z,27.17
2019-02-26T20:35:11.605Z,31.93
2019-02-26T20:36:45.553Z,25.47
2019-02-26T20:38:21.684Z,27.50
2019-02-26T20:39:57.666Z,26.70
2019-02-26T20:41:33.798Z,25.03
2019-02-26T20:43:09.853Z,25.20
2019-02-26T20:44:45.904Z,27.80
2019-02-26T20:46:24.931Z,24.30
2019-02-26T20:48:03.895Z,30.90
2019-02-26T20:49:37.704Z,27.53
2019-02-26T20:51:13.759Z,25.63
2019-02-26T20:52:49.714Z,30.03
2019-02-26T20:54:25.497Z,30.50
2019-02-26T20:56:01.474Z,35.97